Time;durP1;ratioP1;P1;durP2;ratioP2;P2;SDS_P1;SDS_P2;PMS_P1;PMS_P2;Temp;Humidity;BMP_temperature;BMP_pressure;BME280_temperature;BME280_humidity;BME280_pressure;Samples;Min_cycle;Max_cycle;Signal;HPM_P1;HPM_P2
2023/08/14 00:01:26;;;;;;;9.93;9.03;;;26.50;49.90;;;;;;5135507;27;20181;-51
2023/08/14 00:03:52;;;;;;;9.13;8.33;;;26.50;49.90;;;;;;5135659;27;20170;-54
2023/08/14 00:06:18;;;;;;;9.20;8.40;;;26.50;49.90;;;;;;5135369;27;20663;-52
2023/08/14 00:08:43;;;;;;;11.53;8.50;;;26.50;49.90;;;;;;5135554;27;20190;-53
2023/08/14 00:11:09;;;;;;;9.23;8.23;;;26.50;49.90;;;;;;5135281;27;20927;-52
2023/08/14 00:13:55;;;;;;;9.03;8.23;;;26.50;49.80;;;;;;5135371;27;20226;-52
2023/08/14 00:16:22;;;;;;;9.53;8.37;;;26.40;49.90;;;;;;5134941;27;20243;-52
2023/08/14 00:18:48;;;;;;;7.80;7.00;;;26.30;50.00;;;;;;5135218;27;20521;-51
2023/08/14 00:21:13;;;;;;;7.87;7.20;;;26.30;50.00;;;;;;5135312;27;20901;-55
2023/08/14 00:23:39;;;;;;;8.97;8.07;;;26.20;50.10;;;;;;5135011;27;20405;-54
2023/08/14 00:26:05;;;;;;;7.60;6.93;;;26.20;50.20;;;;;;5134713;27;20584;-51
2023/08/14 00:28:32;;;;;;;8.07;7.47;;;26.20;50.30;;;;;;5134924;27;20640;-55
2023/08/14 00:30:58;;;;;;;8.10;7.30;;;26.20;50.20;;;;;;5134929;27;20868;-52
2023/08/14 00:33:23;;;;;;;7.87;7.07;;;26.20;50.10;;;;;;5135188;27;20493;-51
2023/08/14 00:35:49;;;;;;;7.37;6.77;;;26.20;50.20;;;;;;5134531;27;20466;-52
2023/08/14 00:38:15;;;;;;;8.53;7.57;;;26.20;50.20;;;;;;5134824;27;20834;-55
2023/08/14 00:40:41;;;;;;;6.60;6.00;;;26.20;50.20;;;;;;5134765;27;20464;-53
2023/08/14 00:43:07;;;;;;;8.27;7.57;;;26.20;50.10;;;;;;5134695;27;20198;-55
2023/08/14 00:45:33;;;;;;;7.97;7.27;;;26.10;50.20;;;;;;5134272;27;20443;-52
2023/08/14 00:47:59;;;;;;;6.77;6.17;;;26.10;50.20;;;;;;5134945;27;20166;-52
2023/08/14 00:50:25;;;;;;;9.73;7.17;;;26.10;50.00;;;;;;5134561;27;20396;-52
2023/08/14 00:52:55;;;;;;;8.07;6.67;;;26.10;49.90;;;;;;5134545;27;20758;-51
2023/08/14 00:55:26;;;;;;;7.10;6.33;;;26.00;49.90;;;;;;5134188;27;20972;-54
2023/08/14 00:57:53;;;;;;;7.73;7.00;;;26.00;50.00;;;;;;5134396;27;20443;-53
2023/08/14 01:00:19;;;;;;;9.27;7.27;;;25.90;49.50;;;;;;5134573;27;20412;-51
2023/08/14 01:02:46;;;;;;;8.97;7.00;;;25.90;49.50;;;;;;5134310;27;20515;-55
2023/08/14 01:05:13;;;;;;;10.40;6.43;;;25.90;49.30;;;;;;5133900;27;20454;-53
2023/08/14 01:07:39;;;;;;;12.27;7.90;;;25.80;49.60;;;;;;5134081;27;20408;-53
2023/08/14 01:10:10;;;;;;;7.77;6.97;;;25.80;49.80;;;;;;5133711;27;20418;-55
2023/08/14 01:12:54;;;;;;;9.23;6.60;;;25.80;50.00;;;;;;5134514;27;20475;-51
2023/08/14 01:15:31;;;;;;;7.30;6.60;;;25.80;49.80;;;;;;5133965;27;20451;-55
2023/08/14 01:18:02;;;;;;;6.93;6.23;;;25.80;50.00;;;;;;5134162;27;20768;-50
2023/08/14 01:20:30;;;;;;;7.87;6.40;;;25.80;50.00;;;;;;5133960;27;20411;-52
2023/08/14 01:23:25;;;;;;;7.13;6.63;;;25.80;49.90;;;;;;5134004;27;20396;-54
2023/08/14 01:25:52;;;;;;;7.13;6.43;;;25.80;49.70;;;;;;5133563;27;20480;-53
2023/08/14 01:28:18;;;;;;;8.30;7.40;;;25.70;50.10;;;;;;5133852;27;20948;-52
2023/08/14 01:30:44;;;;;;;6.83;6.07;;;25.70;50.10;;;;;;5133869;27;20400;-55
2023/08/14 01:33:10;;;;;;;6.27;5.77;;;25.70;50.20;;;;;;5134010;27;20408;-55
2023/08/14 01:35:43;;;;;;;8.50;6.67;;;25.80;50.20;;;;;;5133350;27;20880;-51
2023/08/14 01:38:20;;;;;;;11.30;7.13;;;25.70;50.10;;;;;;5133747;27;20171;-54
2023/08/14 01:40:49;;;;;;;6.90;6.40;;;25.70;50.00;;;;;;5133889;27;20385;-50
2023/08/14 01:43:22;;;;;;;8.20;6.87;;;25.60;50.00;;;;;;5133883;27;20412;-52
2023/08/14 01:45:48;;;;;;;7.80;7.10;;;25.60;50.00;;;;;;5133005;27;20832;-55
2023/08/14 01:48:15;;;;;;;6.97;6.37;;;25.60;50.00;;;;;;5133660;27;20404;-52
2023/08/14 01:50:41;;;;;;;7.27;6.57;;;25.60;50.00;;;;;;5133493;27;20401;-51
2023/08/14 01:53:07;;;;;;;7.27;6.57;;;25.50;50.00;;;;;;5133498;27;20487;-54
2023/08/14 01:55:33;;;;;;;7.10;6.50;;;25.50;50.00;;;;;;5133085;27;20776;-55
2023/08/14 01:57:59;;;;;;;6.73;5.87;;;25.40;50.20;;;;;;5133380;27;20408;-53
2023/08/14 02:00:26;;;;;;;9.83;6.33;;;25.50;50.40;;;;;;5133237;27;20419;-52
2023/08/14 02:02:53;;;;;;;7.07;6.37;;;25.40;50.40;;;;;;5133366;27;20163;-56
2023/08/14 02:05:19;;;;;;;7.00;6.40;;;25.40;50.30;;;;;;5132884;27;20449;-53
2023/08/14 02:07:44;;;;;;;7.17;6.47;;;25.40;50.30;;;;;;5133167;27;20502;-57
2023/08/14 02:10:10;;;;;;;6.30;5.80;;;25.40;50.40;;;;;;5133108;27;20174;-57
2023/08/14 02:12:36;;;;;;;6.00;5.50;;;25.40;50.40;;;;;;5133317;27;20174;-52
2023/08/14 02:15:02;;;;;;;6.87;6.20;;;25.40;50.00;;;;;;5132767;27;21082;-56
2023/08/14 02:17:28;;;;;;;7.40;5.60;;;25.40;49.90;;;;;;5133329;27;20174;-55
2023/08/14 02:19:54;;;;;;;6.57;6.00;;;25.30;49.90;;;;;;5132853;27;20446;-52
2023/08/14 02:22:20;;;;;;;13.00;6.67;;;25.30;50.10;;;;;;5133146;27;20490;-54
2023/08/14 02:24:46;;;;;;;7.40;6.67;;;25.20;50.40;;;;;;5132608;27;20451;-52
2023/08/14 02:27:12;;;;;;;6.50;6.00;;;25.20;50.10;;;;;;5132942;27;20500;-56
2023/08/14 02:29:38;;;;;;;7.30;6.60;;;25.20;50.20;;;;;;5132932;27;20182;-55
2023/08/14 02:32:04;;;;;;;8.17;6.23;;;25.20;50.10;;;;;;5133247;28;20174;-53
2023/08/14 02:34:41;;;;;;;8.63;7.73;;;25.20;50.10;;;;;;5132724;27;20740;-53
2023/08/14 02:37:07;;;;;;;7.93;7.23;;;25.20;50.40;;;;;;5132931;27;20416;-54
2023/08/14 02:39:33;;;;;;;9.60;7.23;;;25.10;50.20;;;;;;5133066;27;20404;-56
2023/08/14 02:41:59;;;;;;;7.53;6.77;;;25.10;50.80;;;;;;5132812;27;20535;-51
2023/08/14 02:44:24;;;;;;;6.97;6.33;;;25.10;50.00;;;;;;5132652;27;20293;-56
2023/08/14 02:46:50;;;;;;;9.53;8.37;;;25.00;50.00;;;;;;5132779;28;20628;-52
2023/08/14 02:49:16;;;;;;;11.77;6.50;;;25.00;50.20;;;;;;5132845;28;20420;-52
2023/08/14 02:51:42;;;;;;;8.23;7.40;;;25.00;50.20;;;;;;5132671;27;20258;-54
2023/08/14 02:54:07;;;;;;;7.60;6.90;;;25.00;50.40;;;;;;5132650;28;20300;-50
2023/08/14 02:56:33;;;;;;;8.40;7.50;;;25.00;50.40;;;;;;5132535;28;20662;-54
2023/08/14 02:58:59;;;;;;;9.60;6.50;;;25.00;50.30;;;;;;5132967;27;20201;-52
2023/08/14 03:01:25;;;;;;;6.50;5.80;;;24.90;50.10;;;;;;5132553;28;20181;-55
2023/08/14 03:03:51;;;;;;;7.10;6.13;;;24.90;50.20;;;;;;5132562;27;20167;-53
2023/08/14 03:06:17;;;;;;;7.30;6.60;;;24.90;50.30;;;;;;5132251;28;20671;-53
2023/08/14 03:08:43;;;;;;;6.17;5.57;;;24.90;50.40;;;;;;5132618;27;20253;-52
2023/08/14 03:11:09;;;;;;;8.40;6.67;;;24.80;50.40;;;;;;5132469;27;20401;-54
2023/08/14 03:13:35;;;;;;;7.10;6.50;;;24.80;50.40;;;;;;5132494;27;20477;-52
2023/08/14 03:16:01;;;;;;;8.13;7.17;;;24.80;50.40;;;;;;5132456;28;20195;-51
2023/08/14 03:18:26;;;;;;;6.50;5.90;;;24.80;50.30;;;;;;5132422;28;20201;-57
2023/08/14 03:20:52;;;;;;;6.93;6.23;;;24.80;50.30;;;;;;5132517;27;20175;-53
2023/08/14 03:23:18;;;;;;;7.70;7.00;;;24.80;50.50;;;;;;5132349;27;20438;-53
2023/08/14 03:25:44;;;;;;;7.77;7.10;;;24.80;50.60;;;;;;5131870;28;20214;-55
2023/08/14 03:28:10;;;;;;;6.33;5.83;;;24.80;50.60;;;;;;5132715;27;20163;-51
2023/08/14 03:30:41;;;;;;;10.60;6.50;;;24.70;51.40;;;;;;5132568;27;20175;-56
2023/08/14 03:33:07;;;;;;;7.77;6.97;;;24.80;50.80;;;;;;5135321;27;20427;-55
2023/08/14 03:35:32;;;;;;;6.70;6.20;;;24.80;50.70;;;;;;5135855;27;20511;-52
2023/08/14 03:37:58;;;;;;;6.47;5.87;;;24.70;50.40;;;;;;5135970;27;20202;-52
2023/08/14 03:40:24;;;;;;;6.90;6.30;;;24.80;50.50;;;;;;5135965;27;21022;-55
2023/08/14 03:42:50;;;;;;;7.20;6.53;;;24.80;50.50;;;;;;5135959;27;20178;-53
2023/08/14 03:45:16;;;;;;;7.80;7.00;;;24.70;50.40;;;;;;5135562;27;20448;-57
2023/08/14 03:47:42;;;;;;;6.63;5.90;;;24.70;50.40;;;;;;5135912;27;20901;-51
2023/08/14 03:50:08;;;;;;;7.70;6.90;;;24.70;50.40;;;;;;5134538;27;20496;-58
2023/08/14 03:52:33;;;;;;;9.27;6.57;;;24.70;50.80;;;;;;5135627;27;20167;-53
2023/08/14 03:54:59;;;;;;;10.30;6.70;;;24.70;51.00;;;;;;5135687;27;20439;-51
2023/08/14 03:57:25;;;;;;;7.83;6.73;;;24.70;50.80;;;;;;5135611;27;20585;-52
2023/08/14 03:59:51;;;;;;;7.30;6.60;;;24.70;50.80;;;;;;5135617;27;20407;-56
2023/08/14 04:02:17;;;;;;;7.27;6.57;;;24.70;50.90;;;;;;5135583;27;20206;-52
2023/08/14 04:04:43;;;;;;;7.53;6.80;;;24.70;51.00;;;;;;5135192;27;20451;-52
2023/08/14 04:07:08;;;;;;;7.03;6.27;;;24.70;51.00;;;;;;5135401;27;20179;-56
2023/08/14 04:09:34;;;;;;;7.20;6.60;;;24.70;50.80;;;;;;5135398;27;20628;-55
2023/08/14 04:12:01;;;;;;;7.17;6.57;;;24.70;50.80;;;;;;5135641;27;20230;-52
2023/08/14 04:14:27;;;;;;;6.43;5.80;;;24.70;50.80;;;;;;5135092;27;20194;-54
2023/08/14 04:16:54;;;;;;;7.30;6.60;;;24.70;50.80;;;;;;5135199;27;20424;-51
2023/08/14 04:19:20;;;;;;;8.77;6.97;;;24.60;50.70;;;;;;5135238;27;20913;-52
2023/08/14 04:21:46;;;;;;;6.07;5.47;;;24.60;50.90;;;;;;5135055;27;20408;-57
2023/08/14 04:24:12;;;;;;;8.00;6.43;;;24.60;50.90;;;;;;5134781;27;20952;-53
2023/08/14 04:26:39;;;;;;;7.77;7.07;;;24.60;51.00;;;;;;5135075;27;20932;-51
2023/08/14 04:29:08;;;;;;;8.10;7.13;;;24.60;51.00;;;;;;5135026;27;20419;-55
2023/08/14 04:31:38;;;;;;;9.63;7.87;;;24.60;50.90;;;;;;5135329;27;20872;-52
2023/08/14 04:34:05;;;;;;;10.07;6.90;;;24.60;50.90;;;;;;5134723;27;20399;-51
2023/08/14 04:36:34;;;;;;;7.67;6.97;;;24.60;51.00;;;;;;5135008;27;20427;-57
2023/08/14 04:39:03;;;;;;;6.83;6.23;;;24.60;51.10;;;;;;5134876;27;20766;-56
2023/08/14 04:41:29;;;;;;;7.40;6.70;;;24.60;51.20;;;;;;5134819;27;20461;-52
2023/08/14 04:43:55;;;;;;;8.87;7.03;;;24.60;51.30;;;;;;5134629;27;20408;-53
2023/08/14 04:46:35;;;;;;;7.83;7.03;;;24.50;51.30;;;;;;5134363;27;20186;-56
2023/08/14 04:49:01;;;;;;;8.23;6.47;;;24.50;51.40;;;;;;5134607;27;20419;-51
2023/08/14 04:51:28;;;;;;;9.00;6.60;;;24.60;51.70;;;;;;5134506;27;20397;-53
2023/08/14 04:53:55;;;;;;;6.97;6.30;;;24.60;51.90;;;;;;5134599;27;20399;-54
2023/08/14 04:56:20;;;;;;;7.83;7.13;;;24.60;52.00;;;;;;5134265;27;20439;-54
2023/08/14 04:58:46;;;;;;;8.33;6.97;;;24.60;52.10;;;;;;5134537;27;20412;-54
2023/08/14 05:01:12;;;;;;;7.60;6.90;;;24.70;52.30;;;;;;5134517;27;20183;-54
2023/08/14 05:03:38;;;;;;;7.20;6.50;;;24.70;52.40;;;;;;5134240;27;20765;-51
2023/08/14 05:06:04;;;;;;;14.40;6.87;;;24.80;52.40;;;;;;5134163;27;20210;-53
2023/08/14 05:08:31;;;;;;;7.43;5.83;;;24.80;52.50;;;;;;5134341;27;20515;-52
2023/08/14 05:10:57;;;;;;;10.30;7.07;;;24.90;52.60;;;;;;5134278;27;20396;-52
2023/08/14 05:13:23;;;;;;;10.17;6.97;;;24.90;52.60;;;;;;5134442;27;20437;-55
2023/08/14 05:15:50;;;;;;;10.60;7.10;;;25.00;52.50;;;;;;5133831;27;20537;-51
2023/08/14 05:18:17;;;;;;;8.73;7.83;;;25.00;52.30;;;;;;5133984;27;20408;-51
2023/08/14 05:20:47;;;;;;;6.70;6.07;;;25.00;52.30;;;;;;5134206;27;20534;-54
2023/08/14 05:23:14;;;;;;;8.00;7.00;;;25.10;52.50;;;;;;5134196;27;20400;-53
2023/08/14 05:25:44;;;;;;;9.03;6.43;;;25.10;52.60;;;;;;5133522;27;21011;-53
2023/08/14 05:28:11;;;;;;;6.80;6.20;;;25.20;52.50;;;;;;5133910;27;20395;-54
2023/08/14 05:30:41;;;;;;;7.17;6.57;;;25.20;52.50;;;;;;5134026;27;20453;-52
2023/08/14 05:33:06;;;;;;;7.57;6.83;;;25.30;52.50;;;;;;5133831;27;20921;-51
2023/08/14 05:35:32;;;;;;;6.80;5.97;;;25.30;52.60;;;;;;5132046;27;20463;-55
2023/08/14 05:37:59;;;;;;;7.03;6.20;;;25.30;52.50;;;;;;5133690;27;20205;-52
2023/08/14 05:40:26;;;;;;;9.43;6.73;;;25.40;52.50;;;;;;5133947;27;20600;-58
2023/08/14 05:43:07;;;;;;;7.30;6.40;;;25.40;52.60;;;;;;5133830;27;20500;-52
2023/08/14 05:45:46;;;;;;;7.60;6.93;;;25.50;52.50;;;;;;5133418;27;20777;-56
2023/08/14 05:48:13;;;;;;;7.73;7.03;;;25.50;52.30;;;;;;5133842;27;20384;-58
2023/08/14 05:50:39;;;;;;;6.83;6.23;;;25.60;52.10;;;;;;5133629;27;20400;-52
2023/08/14 05:53:06;;;;;;;7.33;6.50;;;25.70;52.00;;;;;;5133500;27;20487;-56
2023/08/14 05:55:33;;;;;;;8.17;7.47;;;25.70;51.70;;;;;;5132576;27;21002;-56
2023/08/14 05:57:59;;;;;;;7.07;6.47;;;25.70;51.70;;;;;;5133644;27;20562;-51
2023/08/14 06:00:25;;;;;;;7.57;6.80;;;25.80;51.70;;;;;;5133236;27;20449;-57
2023/08/14 06:02:52;;;;;;;7.93;6.07;;;25.90;51.50;;;;;;5133184;27;20758;-52
2023/08/14 06:05:19;;;;;;;8.27;7.47;;;26.00;51.60;;;;;;5133003;27;20451;-52
2023/08/14 06:07:46;;;;;;;7.43;6.20;;;26.10;51.90;;;;;;5133199;27;20405;-54
2023/08/14 06:10:12;;;;;;;6.30;5.70;;;26.20;51.50;;;;;;5133096;27;20399;-56
2023/08/14 06:12:38;;;;;;;6.90;6.30;;;26.30;51.50;;;;;;5133160;27;20400;-52
2023/08/14 06:15:05;;;;;;;6.70;6.10;;;26.30;51.30;;;;;;5132799;27;20555;-54
2023/08/14 06:17:32;;;;;;;10.50;7.40;;;26.40;50.90;;;;;;5132984;27;20403;-53
2023/08/14 06:19:58;;;;;;;6.73;6.13;;;26.40;50.90;;;;;;5133039;27;20495;-52
2023/08/14 06:22:24;;;;;;;9.10;5.90;;;26.40;51.30;;;;;;5133329;27;20765;-54
2023/08/14 06:24:50;;;;;;;6.67;6.00;;;26.60;51.30;;;;;;5132535;27;20527;-53
2023/08/14 06:27:16;;;;;;;6.30;5.70;;;26.60;50.50;;;;;;5132940;27;20171;-51
2023/08/14 06:29:42;;;;;;;9.00;6.00;;;26.70;50.30;;;;;;5133246;28;20500;-53
2023/08/14 06:32:08;;;;;;;11.30;5.97;;;26.80;50.20;;;;;;5132923;27;20766;-56
2023/08/14 06:34:34;;;;;;;6.90;5.57;;;26.80;49.80;;;;;;5132441;27;20495;-51
2023/08/14 06:37:00;;;;;;;7.30;5.93;;;27.00;50.30;;;;;;5132937;27;20174;-56
2023/08/14 06:39:26;;;;;;;6.50;5.90;;;27.00;49.90;;;;;;5132792;27;20180;-57
2023/08/14 06:41:51;;;;;;;11.57;5.27;;;27.20;50.00;;;;;;5132836;28;20408;-51
2023/08/14 06:44:17;;;;;;;6.10;5.60;;;27.30;50.30;;;;;;5132703;28;20190;-53
2023/08/14 06:46:43;;;;;;;6.93;6.20;;;27.40;49.60;;;;;;5132767;27;20178;-56
2023/08/14 06:49:11;;;;;;;6.73;4.73;;;27.50;49.70;;;;;;5132792;27;20254;-51
2023/08/14 06:51:39;;;;;;;8.93;5.20;;;27.70;49.10;;;;;;5132731;27;20224;-54
2023/08/14 06:54:05;;;;;;;16.60;5.57;;;27.80;49.10;;;;;;5131137;28;20507;-52
2023/08/14 06:56:32;;;;;;;6.07;4.33;;;27.90;48.40;;;;;;5132666;27;20757;-52
2023/08/14 06:58:57;;;;;;;5.80;4.53;;;27.90;48.10;;;;;;5132624;27;20404;-53
2023/08/14 07:01:24;;;;;;;6.70;5.13;;;28.00;48.00;;;;;;5132877;27;20411;-55
2023/08/14 07:03:50;;;;;;;6.37;4.50;;;28.00;47.10;;;;;;5132537;27;20415;-52
2023/08/14 07:06:15;;;;;;;4.77;4.30;;;28.10;47.10;;;;;;5132192;27;20459;-52
2023/08/14 07:08:42;;;;;;;4.47;4.00;;;28.20;46.90;;;;;;5136472;27;20171;-56
2023/08/14 07:11:07;;;;;;;7.93;4.10;;;28.20;46.50;;;;;;5136588;27;20408;-53
2023/08/14 07:13:33;;;;;;;5.30;4.30;;;28.20;45.50;;;;;;5136479;27;20408;-56
2023/08/14 07:16:00;;;;;;;6.30;4.57;;;28.20;45.60;;;;;;5136471;27;20226;-56
2023/08/14 07:18:25;;;;;;;6.70;5.43;;;28.30;45.50;;;;;;5136370;27;20491;-50
2023/08/14 07:20:51;;;;;;;4.70;4.30;;;28.40;45.60;;;;;;5136316;27;20492;-57
2023/08/14 07:23:19;;;;;;;6.57;4.50;;;28.50;44.70;;;;;;5136300;27;20418;-50
2023/08/14 07:25:45;;;;;;;7.17;3.97;;;28.60;45.20;;;;;;5136110;27;20451;-52
2023/08/14 07:28:12;;;;;;;4.63;4.17;;;28.60;43.40;;;;;;5136224;27;20410;-54
2023/08/14 07:30:38;;;;;;;10.20;4.23;;;28.70;43.30;;;;;;5136174;27;21130;-52
2023/08/14 07:33:07;;;;;;;4.50;3.30;;;28.80;44.00;;;;;;5136141;27;20402;-56
2023/08/14 07:35:33;;;;;;;4.50;3.70;;;28.90;43.40;;;;;;5135517;27;20460;-52
2023/08/14 07:37:59;;;;;;;7.83;3.40;;;28.90;42.70;;;;;;5136382;27;20499;-51
2023/08/14 07:40:25;;;;;;;4.60;3.47;;;29.00;41.80;;;;;;5135994;27;20495;-56
2023/08/14 07:42:51;;;;;;;6.40;3.40;;;29.10;41.10;;;;;;5136003;27;20411;-51
2023/08/14 07:45:17;;;;;;;4.50;3.77;;;29.10;41.30;;;;;;5135600;27;20544;-55
2023/08/14 07:47:43;;;;;;;3.93;3.50;;;29.20;41.10;;;;;;5136134;27;20408;-53
2023/08/14 07:50:10;;;;;;;5.70;5.10;;;29.20;41.90;;;;;;5136069;27;20505;-53
2023/08/14 07:52:36;;;;;;;4.93;3.80;;;29.30;42.10;;;;;;5135727;27;20278;-52
2023/08/14 07:55:02;;;;;;;7.07;4.57;;;29.30;42.40;;;;;;5135433;27;20515;-51
2023/08/14 07:57:28;;;;;;;4.73;3.97;;;29.50;41.90;;;;;;5135721;27;20408;-55
2023/08/14 07:59:54;;;;;;;5.43;3.90;;;29.50;42.90;;;;;;5135668;27;20404;-52
2023/08/14 08:02:20;;;;;;;5.57;4.07;;;29.70;41.80;;;;;;5135512;27;20407;-50
2023/08/14 08:04:46;;;;;;;3.80;3.27;;;29.70;42.20;;;;;;5135202;27;20702;-56
2023/08/14 08:07:13;;;;;;;4.77;3.83;;;29.80;41.90;;;;;;5135724;27;20416;-53
2023/08/14 08:09:39;;;;;;;8.10;4.27;;;29.90;42.00;;;;;;5135676;27;20408;-52
2023/08/14 08:12:06;;;;;;;12.43;4.13;;;30.00;41.70;;;;;;5135447;27;20789;-55
2023/08/14 08:14:33;;;;;;;4.30;4.00;;;30.10;42.50;;;;;;5134988;27;20432;-51
2023/08/14 08:16:59;;;;;;;9.20;4.27;;;30.30;42.70;;;;;;5135212;27;20412;-51
2023/08/14 08:19:25;;;;;;;6.43;4.30;;;30.40;42.10;;;;;;5134867;27;20464;-55
2023/08/14 08:21:52;;;;;;;5.20;4.70;;;30.40;41.70;;;;;;5135221;27;20663;-51
2023/08/14 08:24:18;;;;;;;4.80;4.40;;;30.40;41.30;;;;;;5134906;27;20436;-56
2023/08/14 08:26:43;;;;;;;4.40;4.00;;;30.50;41.20;;;;;;5135091;27;20467;-55
2023/08/14 08:29:09;;;;;;;4.93;4.53;;;30.60;41.80;;;;;;5135231;27;20412;-52
2023/08/14 08:31:35;;;;;;;5.13;4.57;;;30.70;42.50;;;;;;5135016;27;20631;-54
2023/08/14 08:34:01;;;;;;;6.20;4.93;;;30.80;42.00;;;;;;5134773;27;20173;-53
2023/08/14 08:36:27;;;;;;;7.80;4.80;;;30.80;41.30;;;;;;5134684;27;20200;-52
2023/08/14 08:38:53;;;;;;;5.47;4.97;;;30.80;41.50;;;;;;5135280;27;20185;-53
2023/08/14 08:41:27;;;;;;;5.70;4.30;;;30.90;41.80;;;;;;5134808;27;20859;-57
2023/08/14 08:44:14;;;;;;;7.07;5.07;;;31.00;42.60;;;;;;5134853;27;20177;-52
2023/08/14 08:46:50;;;;;;;6.30;4.80;;;31.20;43.20;;;;;;5134626;27;20422;-56
2023/08/14 08:49:17;;;;;;;4.53;4.13;;;31.20;41.10;;;;;;5134727;27;20901;-54
2023/08/14 08:51:45;;;;;;;6.13;5.30;;;31.30;41.30;;;;;;5133372;27;20459;-52
2023/08/14 08:54:14;;;;;;;6.37;4.60;;;31.30;42.20;;;;;;5134598;27;20515;-55
2023/08/14 08:56:41;;;;;;;7.93;5.40;;;31.40;42.40;;;;;;5134535;27;20408;-54
2023/08/14 08:59:09;;;;;;;5.63;5.13;;;31.40;42.30;;;;;;5134334;27;20762;-52
2023/08/14 09:01:35;;;;;;;6.17;5.47;;;31.50;41.70;;;;;;5134625;27;20414;-57
2023/08/14 09:04:01;;;;;;;6.00;5.40;;;31.60;41.80;;;;;;5134493;27;20769;-51
2023/08/14 09:06:27;;;;;;;5.47;4.97;;;31.60;42.00;;;;;;5133997;27;20717;-51
2023/08/14 09:08:53;;;;;;;6.00;5.50;;;31.70;41.10;;;;;;5134271;27;20404;-55
2023/08/14 09:11:19;;;;;;;6.53;5.93;;;31.80;41.70;;;;;;5134452;27;20401;-53
2023/08/14 09:13:46;;;;;;;6.93;5.40;;;31.80;42.60;;;;;;5134043;27;20408;-50
2023/08/14 09:16:15;;;;;;;5.90;5.40;;;31.90;41.90;;;;;;5133896;27;20797;-56
2023/08/14 09:18:44;;;;;;;5.93;5.43;;;32.00;42.40;;;;;;5134253;27;20488;-51
2023/08/14 09:21:11;;;;;;;6.50;5.90;;;32.10;42.70;;;;;;5134090;27;20400;-52
2023/08/14 09:23:41;;;;;;;5.60;5.20;;;32.10;42.40;;;;;;5134323;27;20480;-55
2023/08/14 09:26:08;;;;;;;6.37;4.23;;;32.20;41.20;;;;;;5132682;27;20450;-52
2023/08/14 09:28:35;;;;;;;6.40;5.70;;;32.30;40.10;;;;;;5134096;27;20405;-54
2023/08/14 09:31:12;;;;;;;6.47;5.00;;;32.30;41.30;;;;;;5133175;27;20495;-51
2023/08/14 09:33:39;;;;;;;6.90;5.03;;;32.40;40.60;;;;;;5133870;27;20752;-53
2023/08/14 09:36:05;;;;;;;5.17;4.67;;;32.40;39.70;;;;;;5133367;27;20450;-56
2023/08/14 09:38:32;;;;;;;5.40;5.00;;;32.50;39.50;;;;;;5133660;27;20404;-53
2023/08/14 09:40:58;;;;;;;7.17;5.00;;;32.60;40.00;;;;;;5133724;27;20404;-52
2023/08/14 09:43:26;;;;;;;4.90;4.40;;;32.70;39.90;;;;;;5133859;27;20423;-56
2023/08/14 09:45:52;;;;;;;6.60;5.40;;;32.70;39.50;;;;;;5133447;27;20454;-53
2023/08/14 09:48:18;;;;;;;7.93;5.37;;;32.70;39.00;;;;;;5133566;27;20419;-53
2023/08/14 09:50:51;;;;;;;4.93;4.53;;;32.60;39.50;;;;;;5133775;27;20399;-53
2023/08/14 09:53:18;;;;;;;5.20;4.70;;;32.60;39.00;;;;;;5133413;27;20435;-52
2023/08/14 09:55:44;;;;;;;6.33;5.57;;;32.50;39.00;;;;;;5133179;27;20416;-52
2023/08/14 09:58:10;;;;;;;5.90;5.30;;;32.50;39.40;;;;;;5133607;27;20545;-58
2023/08/14 10:00:38;;;;;;;5.63;5.13;;;32.40;39.70;;;;;;5133501;27;20533;-56
2023/08/14 10:03:07;;;;;;;6.63;6.03;;;32.50;39.80;;;;;;5133404;27;20457;-52
2023/08/14 10:05:33;;;;;;;8.30;6.10;;;32.40;39.70;;;;;;5132843;27;20447;-52
2023/08/14 10:08:00;;;;;;;9.33;5.27;;;32.40;40.20;;;;;;5133254;27;20546;-52
2023/08/14 10:10:30;;;;;;;5.23;4.83;;;32.40;40.40;;;;;;5133511;27;20986;-52
2023/08/14 10:12:59;;;;;;;5.43;4.47;;;32.40;39.90;;;;;;5133337;27;20401;-56
2023/08/14 10:15:29;;;;;;;6.17;5.60;;;32.50;40.60;;;;;;5132779;27;20439;-56
2023/08/14 10:18:08;;;;;;;8.07;6.07;;;32.50;40.40;;;;;;5133176;27;20925;-52
2023/08/14 10:20:35;;;;;;;5.97;5.47;;;32.60;39.40;;;;;;5133117;27;20407;-55
2023/08/14 10:23:02;;;;;;;5.73;5.20;;;32.60;40.30;;;;;;5133304;27;20457;-55
2023/08/14 10:25:28;;;;;;;5.00;4.60;;;32.70;41.50;;;;;;5132656;27;20969;-52
2023/08/14 10:27:54;;;;;;;5.77;5.13;;;32.70;40.10;;;;;;5132953;27;20541;-57
2023/08/14 10:30:24;;;;;;;7.10;5.40;;;32.80;40.30;;;;;;5133265;27;20436;-53
2023/08/14 10:32:52;;;;;;;7.17;6.37;;;32.80;40.60;;;;;;5132946;27;20443;-55
2023/08/14 10:35:20;;;;;;;6.17;5.53;;;32.80;39.40;;;;;;5132599;27;20492;-51
2023/08/14 10:37:47;;;;;;;6.50;5.80;;;32.80;40.40;;;;;;5132922;27;20412;-57
2023/08/14 10:40:16;;;;;;;8.00;5.60;;;32.80;38.60;;;;;;5133022;27;20441;-51
2023/08/14 10:42:52;;;;;;;12.30;5.60;;;32.80;39.20;;;;;;5137104;27;20400;-52
2023/08/14 10:45:22;;;;;;;6.73;5.63;;;32.90;39.70;;;;;;5136650;27;20459;-55
2023/08/14 10:47:50;;;;;;;7.67;4.90;;;32.90;39.90;;;;;;5137083;27;20920;-51
2023/08/14 10:50:22;;;;;;;6.20;5.13;;;32.80;39.50;;;;;;5137117;27;20408;-53
2023/08/14 10:52:52;;;;;;;5.20;4.80;;;32.80;39.30;;;;;;5136800;27;20404;-56
2023/08/14 10:55:24;;;;;;;4.97;4.47;;;32.80;38.90;;;;;;5136599;27;20424;-52
2023/08/14 10:57:54;;;;;;;11.50;5.10;;;32.80;39.30;;;;;;5135503;27;20427;-56
2023/08/14 11:00:22;;;;;;;5.60;4.40;;;32.70;39.30;;;;;;5136793;27;20415;-56
2023/08/14 11:03:07;;;;;;;5.83;4.77;;;32.60;39.70;;;;;;5137001;27;20400;-51
2023/08/14 11:05:38;;;;;;;5.30;4.90;;;32.60;39.40;;;;;;5136397;27;20455;-52
2023/08/14 11:08:06;;;;;;;5.80;5.17;;;32.50;39.80;;;;;;5136555;27;20487;-54
2023/08/14 11:10:36;;;;;;;6.07;5.57;;;32.40;40.10;;;;;;5136978;27;20404;-55
2023/08/14 11:13:09;;;;;;;6.70;5.13;;;32.40;39.90;;;;;;5136545;27;20499;-52
2023/08/14 11:15:36;;;;;;;5.80;5.30;;;32.30;40.40;;;;;;5136479;27;20416;-55
2023/08/14 11:18:09;;;;;;;11.73;5.33;;;32.20;40.70;;;;;;5136758;27;20411;-52
2023/08/14 11:20:37;;;;;;;10.50;6.80;;;32.20;40.80;;;;;;5136544;27;20407;-50
2023/08/14 11:23:04;;;;;;;6.07;5.43;;;32.20;41.10;;;;;;5136343;27;20438;-55
2023/08/14 11:25:30;;;;;;;7.07;4.77;;;32.20;40.70;;;;;;5135946;27;21004;-53
2023/08/14 11:27:56;;;;;;;5.80;5.13;;;32.10;40.20;;;;;;5136379;27;20396;-53
2023/08/14 11:30:24;;;;;;;7.40;5.27;;;32.10;40.60;;;;;;5136530;27;20919;-55
2023/08/14 11:32:51;;;;;;;5.90;5.07;;;32.10;40.40;;;;;;5136238;27;20167;-56
2023/08/14 11:35:18;;;;;;;6.20;4.13;;;32.00;39.80;;;;;;5135817;27;20987;-52
2023/08/14 11:37:47;;;;;;;4.80;4.40;;;32.00;40.20;;;;;;5136088;27;20960;-53
2023/08/14 11:40:15;;;;;;;7.47;5.10;;;32.00;40.30;;;;;;5136149;27;20461;-58
2023/08/14 11:42:42;;;;;;;15.87;8.97;;;31.90;39.70;;;;;;5136112;27;20404;-52
2023/08/14 11:45:09;;;;;;;11.70;5.93;;;31.90;39.80;;;;;;5135619;27;20479;-58
2023/08/14 11:47:37;;;;;;;6.00;5.50;;;31.90;40.00;;;;;;5135823;27;20932;-53
2023/08/14 11:50:05;;;;;;;8.37;6.00;;;31.90;40.50;;;;;;5136040;27;20909;-54
2023/08/14 11:52:31;;;;;;;6.83;6.20;;;31.80;40.70;;;;;;5134998;27;20400;-55
2023/08/14 11:54:58;;;;;;;6.30;5.70;;;31.80;40.10;;;;;;5135403;27;20523;-51
2023/08/14 11:57:25;;;;;;;6.13;5.20;;;31.80;40.70;;;;;;5135783;27;20430;-54
2023/08/14 11:59:54;;;;;;;6.90;6.20;;;31.80;40.80;;;;;;5135606;27;20412;-55
2023/08/14 12:02:20;;;;;;;7.30;6.60;;;31.80;40.80;;;;;;5135528;27;21079;-55
2023/08/14 12:04:57;;;;;;;6.40;5.90;;;31.70;40.60;;;;;;5135152;27;20452;-52
2023/08/14 12:07:26;;;;;;;6.10;5.50;;;31.80;40.70;;;;;;5135695;27;20490;-58
2023/08/14 12:09:56;;;;;;;7.13;6.53;;;31.80;40.80;;;;;;5135552;27;20427;-56
2023/08/14 12:12:22;;;;;;;6.33;5.70;;;31.90;41.40;;;;;;5135418;27;20443;-55
2023/08/14 12:14:50;;;;;;;7.70;6.90;;;31.90;41.40;;;;;;5135006;27;20522;-51
2023/08/14 12:17:18;;;;;;;6.93;6.33;;;32.00;41.80;;;;;;5135280;27;20439;-54
2023/08/14 12:19:57;;;;;;;7.33;5.60;;;32.10;41.50;;;;;;5135464;27;20419;-55
2023/08/14 12:22:25;;;;;;;7.13;6.53;;;32.20;41.60;;;;;;5135163;27;20935;-56
2023/08/14 12:24:52;;;;;;;7.33;6.03;;;32.30;41.40;;;;;;5135035;27;20531;-52
2023/08/14 12:27:19;;;;;;;6.87;6.13;;;32.30;41.10;;;;;;5135303;27;20405;-52
2023/08/14 12:29:46;;;;;;;6.33;5.77;;;32.30;40.80;;;;;;5135046;27;20464;-57
2023/08/14 12:32:12;;;;;;;6.37;5.80;;;32.30;40.80;;;;;;5135074;27;20435;-53
2023/08/14 12:34:39;;;;;;;6.27;5.67;;;32.30;40.90;;;;;;5134691;27;20455;-53
2023/08/14 12:37:05;;;;;;;5.40;4.93;;;32.40;40.60;;;;;;5134961;27;20407;-55
2023/08/14 12:39:31;;;;;;;8.33;5.37;;;32.40;39.30;;;;;;5134876;27;20396;-51
2023/08/14 12:42:02;;;;;;;6.57;5.47;;;32.60;40.00;;;;;;5134784;27;20401;-51
2023/08/14 12:44:28;;;;;;;6.10;5.50;;;32.80;40.40;;;;;;5134438;27;20903;-54
2023/08/14 12:46:55;;;;;;;11.87;6.37;;;32.90;40.40;;;;;;5134720;27;20512;-53